Poulan, Georgia
Current Conditions -  °F | °C
As of 8:35 AM on Sunday 21 Dec 2014 (Local Time) from KTMA Reporting Station
Drizzle Drizzle  
Wind Chill: 52°   Ceiling: 400
Heat Index: 52°   Visibility: 5mi
Dew Point: 51°   Wind: 6mph
Humidity: 98%   Direction: 60°ENE
Pressure: 30.15"   Gusts: NA
Location:  31.51°N, 83.79°W
Report Text: KTMA 211335Z AUTO 06005KT 5SM -DZ OVC004 11/11 A3015 RMK AO2 T01090106
Loading
Personal Weather Stations






























Interactive Weather Map New forecast layout! Learn more

10-Day Weather Forecast

Advertisements
Track Severe Weather on mobile